createdAt,value
2022-11-17T00:01:32.567Z,5.79
2022-11-17T00:04:02.211Z,5.80
2022-11-17T00:06:30.539Z,5.80
2022-11-17T00:08:59.039Z,5.78
2022-11-17T00:11:47.498Z,5.72
2022-11-17T00:14:33.228Z,5.68
2022-11-17T00:17:02.061Z,5.68
2022-11-17T00:19:49.045Z,5.63
2022-11-17T00:22:17.430Z,5.54
2022-11-17T00:24:46.597Z,5.53
2022-11-17T00:27:15.231Z,5.47
2022-11-17T00:29:43.598Z,5.44
2022-11-17T00:32:31.058Z,5.43
2022-11-17T00:35:00.763Z,5.43
2022-11-17T00:37:31.265Z,5.38
2022-11-17T00:40:01.136Z,5.31
2022-11-17T00:42:29.854Z,5.27
2022-11-17T00:44:58.219Z,5.25
2022-11-17T00:47:26.528Z,5.18
2022-11-17T00:49:54.866Z,5.12
2022-11-17T00:52:24.517Z,5.12
2022-11-17T00:54:52.841Z,5.13
2022-11-17T00:57:21.171Z,5.18
2022-11-17T00:59:49.488Z,5.20
2022-11-17T01:02:17.768Z,5.16
2022-11-17T01:04:46.089Z,5.07
2022-11-17T01:07:14.530Z,5.01
2022-11-17T01:09:44.190Z,4.96
2022-11-17T01:12:12.793Z,5.01
2022-11-17T01:14:41.256Z,5.02
2022-11-17T01:17:09.590Z,5.01
2022-11-17T01:19:37.927Z,4.99
2022-11-17T01:22:06.773Z,5.00
2022-11-17T01:24:35.100Z,5.06
2022-11-17T01:27:04.902Z,5.08
2022-11-17T01:29:33.420Z,5.06
2022-11-17T01:32:01.953Z,4.98
2022-11-17T01:34:30.307Z,5.01
2022-11-17T01:37:16.307Z,5.04
2022-11-17T01:39:45.030Z,5.06
2022-11-17T01:42:18.301Z,5.07
2022-11-17T01:45:04.419Z,5.09
2022-11-17T01:47:51.471Z,5.09
2022-11-17T01:50:38.452Z,5.11
2022-11-17T01:53:12.233Z,5.15
2022-11-17T01:55:46.798Z,5.06
2022-11-17T01:58:22.395Z,5.04
2022-11-17T02:00:50.912Z,5.00
2022-11-17T02:03:19.415Z,4.96
2022-11-17T02:05:56.115Z,4.86
2022-11-17T02:08:28.837Z,4.81
2022-11-17T02:10:57.870Z,4.70
2022-11-17T02:13:28.889Z,4.58
2022-11-17T02:15:57.540Z,4.67
2022-11-17T02:18:26.109Z,4.76
2022-11-17T02:21:18.198Z,4.75
2022-11-17T02:24:27.022Z,4.74
2022-11-17T02:27:37.168Z,4.72
2022-11-17T02:30:11.502Z,4.56
2022-11-17T02:32:50.677Z,4.63
2022-11-17T02:35:24.902Z,4.72
2022-11-17T02:38:02.178Z,4.72
2022-11-17T02:40:35.377Z,4.74
2022-11-17T02:43:26.886Z,4.59
2022-11-17T02:46:03.765Z,4.59
2022-11-17T02:48:37.320Z,4.70
2022-11-17T02:51:07.660Z,4.77
2022-11-17T02:53:37.960Z,4.76
2022-11-17T02:56:08.352Z,4.71
2022-11-17T02:58:36.705Z,4.73
2022-11-17T03:01:22.240Z,4.78
2022-11-17T03:04:11.036Z,4.87
2022-11-17T03:06:51.632Z,4.87
2022-11-17T03:09:27.836Z,4.95
2022-11-17T03:12:02.766Z,5.01
2022-11-17T03:14:52.288Z,5.07
2022-11-17T03:17:28.359Z,5.17
2022-11-17T03:20:03.888Z,5.32
2022-11-17T03:22:42.183Z,5.46
2022-11-17T03:25:17.468Z,5.60
2022-11-17T03:27:49.513Z,5.71
2022-11-17T03:30:20.907Z,5.78
2022-11-17T03:32:58.144Z,5.84
2022-11-17T03:35:30.708Z,5.93
2022-11-17T03:38:04.764Z,6.01
2022-11-17T03:40:35.848Z,6.05
2022-11-17T03:43:08.012Z,6.10
2022-11-17T03:45:38.829Z,6.15
2022-11-17T03:48:15.228Z,6.22
2022-11-17T03:50:48.512Z,6.27
2022-11-17T03:53:17.174Z,6.37
2022-11-17T03:55:55.863Z,6.45
2022-11-17T03:58:29.240Z,6.53
2022-11-17T04:01:00.102Z,6.62
2022-11-17T04:03:34.099Z,6.68
2022-11-17T04:06:03.058Z,6.75
2022-11-17T04:08:31.846Z,6.78
2022-11-17T04:11:17.716Z,6.81
2022-11-17T04:14:02.876Z,6.83
2022-11-17T04:16:31.235Z,6.88
2022-11-17T04:19:00.888Z,6.89
2022-11-17T04:21:29.380Z,6.93
2022-11-17T04:23:57.984Z,6.94
2022-11-17T04:26:43.912Z,6.96
2022-11-17T04:29:12.241Z,6.98
2022-11-17T04:31:40.570Z,6.98
2022-11-17T04:34:10.275Z,6.97
2022-11-17T04:36:40.801Z,6.96
2022-11-17T04:39:09.707Z,6.96
2022-11-17T04:41:57.271Z,6.98
2022-11-17T04:44:27.961Z,6.97
2022-11-17T04:46:57.778Z,6.99
2022-11-17T04:49:27.747Z,7.01
2022-11-17T04:51:56.243Z,7.01
2022-11-17T04:54:26.054Z,7.03
2022-11-17T04:56:55.821Z,7.04
2022-11-17T04:59:24.875Z,7.07
2022-11-17T05:01:53.400Z,7.07
2022-11-17T05:04:36.630Z,7.09
2022-11-17T05:07:06.990Z,7.13
2022-11-17T05:09:35.340Z,7.13
2022-11-17T05:12:21.721Z,7.12
2022-11-17T05:14:50.512Z,7.11
2022-11-17T05:17:18.328Z,7.11
2022-11-17T05:19:48.144Z,7.10
2022-11-17T05:22:36.710Z,7.10
2022-11-17T05:25:06.835Z,7.10
2022-11-17T05:27:36.037Z,7.09
2022-11-17T05:30:06.901Z,7.08
2022-11-17T05:32:35.477Z,7.07
2022-11-17T05:35:03.876Z,7.08
2022-11-17T05:37:33.566Z,7.07
2022-11-17T05:40:01.879Z,7.06
2022-11-17T05:42:30.224Z,7.06
2022-11-17T05:44:58.546Z,7.04
2022-11-17T05:47:26.937Z,7.04
2022-11-17T05:49:55.256Z,7.05
2022-11-17T05:52:23.598Z,7.05
2022-11-17T05:54:53.290Z,7.05
2022-11-17T05:57:27.291Z,7.04
2022-11-17T06:00:00.615Z,7.06
2022-11-17T06:02:35.088Z,7.05
2022-11-17T06:05:03.894Z,7.04
2022-11-17T06:07:32.256Z,7.03
2022-11-17T06:10:01.953Z,7.04
2022-11-17T06:12:30.295Z,7.04
2022-11-17T06:14:58.643Z,7.05
2022-11-17T06:17:32.344Z,7.07
2022-11-17T06:20:04.758Z,7.08
2022-11-17T06:22:34.162Z,7.10
2022-11-17T06:25:05.634Z,7.12
2022-11-17T06:27:34.975Z,7.12
2022-11-17T06:30:05.681Z,7.13
2022-11-17T06:32:36.242Z,7.14
2022-11-17T06:35:07.075Z,7.13
2022-11-17T06:37:39.273Z,7.13
2022-11-17T06:40:11.672Z,7.14
2022-11-17T06:42:57.746Z,7.06
2022-11-17T06:45:26.228Z,6.95
2022-11-17T06:47:55.121Z,6.90
2022-11-17T06:50:23.432Z,6.88
2022-11-17T06:52:51.842Z,6.79
2022-11-17T06:55:21.780Z,6.69
2022-11-17T06:57:53.414Z,6.63
2022-11-17T07:00:22.441Z,6.58
2022-11-17T07:02:50.829Z,6.55
2022-11-17T07:05:19.189Z,6.56
2022-11-17T07:07:47.804Z,6.63
2022-11-17T07:10:16.252Z,6.72
2022-11-17T07:12:46.851Z,6.81
2022-11-17T07:15:15.356Z,6.88
2022-11-17T07:17:43.760Z,6.94
2022-11-17T07:20:13.218Z,6.93
2022-11-17T07:22:42.560Z,6.93
2022-11-17T07:25:19.621Z,6.93
2022-11-17T07:28:08.320Z,6.95
2022-11-17T07:30:36.824Z,6.98
2022-11-17T07:33:06.187Z,7.03
2022-11-17T07:35:37.126Z,7.08
2022-11-17T07:38:05.593Z,7.14
2022-11-17T07:40:33.982Z,7.18
2022-11-17T07:43:03.755Z,7.22
2022-11-17T07:45:32.532Z,7.26
2022-11-17T07:48:03.506Z,7.31
2022-11-17T07:50:32.179Z,7.35
2022-11-17T07:53:00.722Z,7.40
2022-11-17T07:55:29.266Z,7.44
2022-11-17T07:57:58.332Z,7.48
2022-11-17T08:00:29.905Z,7.52
2022-11-17T08:03:01.636Z,7.49
2022-11-17T08:05:30.835Z,7.47
2022-11-17T08:08:00.606Z,7.44
2022-11-17T08:10:31.294Z,7.46
2022-11-17T08:13:00.852Z,7.49
2022-11-17T08:15:31.904Z,7.54
2022-11-17T08:18:02.146Z,7.60
2022-11-17T08:20:30.993Z,7.63
2022-11-17T08:22:59.468Z,7.67
2022-11-17T08:25:28.951Z,7.72
2022-11-17T08:27:58.217Z,7.75
2022-11-17T08:30:27.352Z,7.78
2022-11-17T08:32:57.135Z,7.80
2022-11-17T08:35:26.799Z,7.81
2022-11-17T08:37:55.931Z,7.85
2022-11-17T08:40:24.755Z,7.88
2022-11-17T08:43:00.595Z,7.91
2022-11-17T08:45:30.060Z,7.94
2022-11-17T08:48:00.042Z,7.96
2022-11-17T08:50:28.577Z,8.01
2022-11-17T08:53:06.955Z,8.04
2022-11-17T08:55:41.181Z,8.06
2022-11-17T08:58:10.076Z,8.11
2022-11-17T09:00:38.632Z,8.18
2022-11-17T09:03:11.359Z,8.25
2022-11-17T09:05:40.848Z,8.32
2022-11-17T09:08:43.539Z,8.38
2022-11-17T09:10:59.096Z,8.43
2022-11-17T09:13:27.491Z,8.50
2022-11-17T09:15:55.855Z,8.57
2022-11-17T09:18:25.599Z,8.70
2022-11-17T09:20:53.994Z,8.81
2022-11-17T09:23:22.530Z,8.90
2022-11-17T09:25:50.943Z,8.97
2022-11-17T09:28:19.283Z,9.07
2022-11-17T09:30:47.782Z,9.19
2022-11-17T09:33:16.231Z,9.38
2022-11-17T09:35:46.116Z,9.56
2022-11-17T09:38:14.493Z,9.68
2022-11-17T09:40:44.486Z,9.73
2022-11-17T09:43:26.646Z,9.81
2022-11-17T09:46:01.896Z,9.88
2022-11-17T09:48:42.038Z,9.99
2022-11-17T09:51:16.257Z,10.02
2022-11-17T09:53:50.816Z,9.99
2022-11-17T09:56:19.387Z,10.03
2022-11-17T09:58:52.110Z,10.10
2022-11-17T10:01:21.989Z,10.07
2022-11-17T10:03:51.940Z,10.01
2022-11-17T10:06:23.799Z,10.01
2022-11-17T10:09:00.264Z,9.97
2022-11-17T10:11:34.092Z,10.11
2022-11-17T10:14:15.166Z,10.17
2022-11-17T10:16:45.865Z,10.21
2022-11-17T10:19:19.094Z,10.20
2022-11-17T10:21:52.920Z,10.19
2022-11-17T10:24:39.203Z,10.19
2022-11-17T10:27:20.311Z,10.22
2022-11-17T10:29:58.651Z,10.39
2022-11-17T10:32:27.665Z,10.50
2022-11-17T10:34:56.025Z,10.62
2022-11-17T10:37:31.912Z,10.78
2022-11-17T10:40:18.243Z,11.01
2022-11-17T10:43:04.548Z,11.31
2022-11-17T10:45:33.761Z,11.55
2022-11-17T10:48:21.499Z,11.61
2022-11-17T10:50:55.132Z,11.63
2022-11-17T10:53:38.226Z,11.78
2022-11-17T10:56:15.420Z,11.86
2022-11-17T10:59:03.208Z,11.82
2022-11-17T11:01:33.582Z,11.68
2022-11-17T11:04:02.882Z,11.55
2022-11-17T11:06:32.432Z,11.42
2022-11-17T11:09:05.683Z,11.34
2022-11-17T11:11:42.231Z,11.25
2022-11-17T11:14:19.291Z,11.15
2022-11-17T11:16:49.197Z,11.07
2022-11-17T11:19:21.921Z,11.01
2022-11-17T11:22:04.059Z,10.96
2022-11-17T11:24:43.863Z,10.95
2022-11-17T11:27:28.621Z,10.93
2022-11-17T11:30:03.443Z,10.92
2022-11-17T11:32:42.334Z,10.93
2022-11-17T11:35:38.299Z,10.92
2022-11-17T11:38:18.911Z,10.90
2022-11-17T11:41:02.875Z,10.88
2022-11-17T11:43:40.763Z,10.85
2022-11-17T11:46:17.193Z,10.83
2022-11-17T11:48:49.287Z,10.86
2022-11-17T11:51:22.181Z,10.84
2022-11-17T11:53:55.887Z,10.86
2022-11-17T11:56:33.045Z,10.87
2022-11-17T11:59:05.035Z,10.87
2022-11-17T12:01:44.004Z,10.88
2022-11-17T12:04:26.698Z,10.87
2022-11-17T12:07:01.433Z,10.89
2022-11-17T12:09:45.160Z,10.88
2022-11-17T12:12:18.343Z,10.84
2022-11-17T12:15:32.874Z,10.79
2022-11-17T12:18:04.906Z,10.77
2022-11-17T12:20:53.712Z,10.76
2022-11-17T12:23:58.377Z,10.73
2022-11-17T12:26:29.517Z,10.72
2022-11-17T12:29:26.577Z,10.71
2022-11-17T12:31:55.982Z,10.68
2022-11-17T12:34:27.735Z,10.68
2022-11-17T12:37:21.834Z,10.68
2022-11-17T12:39:58.471Z,10.68
2022-11-17T12:42:27.562Z,10.68
2022-11-17T12:45:02.675Z,10.69
2022-11-17T12:47:33.527Z,10.68
2022-11-17T12:50:43.308Z,10.69
2022-11-17T12:53:27.399Z,10.68
2022-11-17T12:56:43.255Z,10.71
2022-11-17T12:59:45.680Z,10.74
2022-11-17T13:02:31.954Z,10.75
2022-11-17T13:05:05.062Z,10.75
2022-11-17T13:07:33.891Z,10.77
2022-11-17T13:10:02.801Z,10.77
2022-11-17T13:12:32.600Z,10.78
2022-11-17T13:15:02.910Z,10.76
2022-11-17T13:17:39.848Z,10.76
2022-11-17T13:20:20.533Z,10.72
2022-11-17T13:23:00.618Z,10.69
2022-11-17T13:25:29.030Z,10.68
2022-11-17T13:28:04.146Z,10.65
2022-11-17T13:30:34.036Z,10.64
2022-11-17T13:33:04.810Z,10.62
2022-11-17T13:35:35.842Z,10.62
2022-11-17T13:38:07.333Z,10.60
2022-11-17T13:40:37.786Z,10.61
2022-11-17T13:43:06.967Z,10.62
2022-11-17T13:45:36.268Z,10.64
2022-11-17T13:48:06.280Z,10.62
2022-11-17T13:50:39.128Z,10.62
2022-11-17T13:53:24.053Z,10.62
2022-11-17T13:55:53.459Z,10.60
2022-11-17T13:58:33.813Z,10.59
2022-11-17T14:01:02.497Z,10.59
2022-11-17T14:03:40.466Z,10.59
2022-11-17T14:06:10.609Z,10.57
2022-11-17T14:08:40.999Z,10.55
2022-11-17T14:11:21.238Z,10.54
2022-11-17T14:13:52.415Z,10.52
2022-11-17T14:16:27.111Z,10.52
2022-11-17T14:19:00.007Z,10.50
2022-11-17T14:21:29.143Z,10.47
2022-11-17T14:24:13.913Z,10.46
2022-11-17T14:26:44.678Z,10.44
2022-11-17T14:29:14.245Z,10.43
2022-11-17T14:31:43.252Z,10.42
2022-11-17T14:34:13.430Z,10.39
2022-11-17T14:36:43.038Z,10.39
2022-11-17T14:39:15.237Z,10.35
2022-11-17T14:41:44.386Z,10.33
2022-11-17T14:44:13.087Z,10.31
2022-11-17T14:46:42.013Z,10.28
2022-11-17T14:49:12.252Z,10.26
2022-11-17T14:51:41.058Z,10.24
2022-11-17T14:54:09.686Z,10.21
2022-11-17T14:56:38.139Z,10.19
2022-11-17T14:59:06.459Z,10.18
2022-11-17T15:01:38.568Z,10.17
2022-11-17T15:04:34.485Z,10.14
2022-11-17T15:06:58.086Z,10.11
2022-11-17T15:09:26.476Z,10.09
2022-11-17T15:11:54.903Z,10.11
2022-11-17T15:14:24.099Z,10.12
2022-11-17T15:16:52.495Z,10.11
2022-11-17T15:19:20.922Z,10.09
2022-11-17T15:21:49.332Z,10.07
2022-11-17T15:24:19.050Z,10.04
2022-11-17T15:26:47.448Z,10.01
2022-11-17T15:29:18.420Z,9.97
2022-11-17T15:31:47.471Z,9.93
2022-11-17T15:34:20.260Z,9.93
2022-11-17T15:36:49.265Z,9.88
2022-11-17T15:39:20.674Z,9.83
2022-11-17T15:41:50.522Z,9.79
2022-11-17T15:44:19.839Z,9.75
2022-11-17T15:46:48.540Z,9.71
2022-11-17T15:49:17.581Z,9.67
2022-11-17T15:51:46.314Z,9.63
2022-11-17T15:54:20.047Z,9.59
2022-11-17T15:56:50.977Z,9.55
2022-11-17T15:59:19.882Z,9.51
2022-11-17T16:01:48.480Z,9.48
2022-11-17T16:04:17.261Z,9.45
2022-11-17T16:06:47.546Z,9.42
2022-11-17T16:09:17.120Z,9.40
2022-11-17T16:11:46.196Z,9.37
2022-11-17T16:14:16.040Z,9.37
2022-11-17T16:16:46.748Z,9.36
2022-11-17T16:19:15.318Z,9.35
2022-11-17T16:21:44.585Z,9.35
2022-11-17T16:24:13.246Z,9.35
2022-11-17T16:26:41.748Z,9.34
2022-11-17T16:29:10.194Z,9.33
2022-11-17T16:31:40.518Z,9.31
2022-11-17T16:34:12.895Z,9.27
2022-11-17T16:36:43.008Z,9.25
2022-11-17T16:39:13.667Z,9.22
2022-11-17T16:41:43.550Z,9.20
2022-11-17T16:44:13.466Z,9.18
2022-11-17T16:46:45.184Z,9.15
2022-11-17T16:49:16.171Z,9.12
2022-11-17T16:51:48.598Z,9.09
2022-11-17T16:54:18.098Z,9.08
2022-11-17T16:56:46.958Z,9.06
2022-11-17T16:59:16.063Z,9.07
2022-11-17T17:01:47.588Z,9.10
2022-11-17T17:04:16.610Z,9.09
2022-11-17T17:06:45.876Z,9.10
2022-11-17T17:09:15.949Z,9.10
2022-11-17T17:11:44.663Z,9.09
2022-11-17T17:14:14.351Z,9.07
2022-11-17T17:16:43.720Z,9.07
2022-11-17T17:19:15.397Z,9.07
2022-11-17T17:21:45.562Z,9.11
2022-11-17T17:24:14.195Z,9.12
2022-11-17T17:26:42.989Z,9.15
2022-11-17T17:29:11.951Z,9.14
2022-11-17T17:31:42.411Z,9.15
2022-11-17T17:34:14.044Z,9.17
2022-11-17T17:36:42.556Z,9.20
2022-11-17T17:39:14.640Z,9.21
2022-11-17T17:41:44.353Z,9.25
2022-11-17T17:44:17.198Z,9.27
2022-11-17T17:46:46.219Z,9.27
2022-11-17T17:49:16.255Z,9.27
2022-11-17T17:51:45.420Z,9.26
2022-11-17T17:54:17.079Z,9.26
2022-11-17T17:56:45.941Z,9.23
2022-11-17T17:59:15.934Z,9.22
2022-11-17T18:01:46.254Z,9.21
2022-11-17T18:04:17.099Z,9.21
2022-11-17T18:06:47.904Z,9.22
2022-11-17T18:09:19.350Z,9.23
2022-11-17T18:11:50.021Z,9.26
2022-11-17T18:14:20.529Z,9.27
2022-11-17T18:16:49.103Z,9.26
2022-11-17T18:19:19.243Z,9.27
2022-11-17T18:21:47.800Z,9.25
2022-11-17T18:24:16.228Z,9.26
2022-11-17T18:26:45.050Z,9.26
2022-11-17T18:29:16.066Z,9.23
2022-11-17T18:31:46.783Z,9.21
2022-11-17T18:34:17.256Z,9.18
2022-11-17T18:36:47.233Z,9.16
2022-11-17T18:39:16.368Z,9.14
2022-11-17T18:41:45.912Z,9.13
2022-11-17T18:44:15.219Z,9.11
2022-11-17T18:46:43.650Z,9.09
2022-11-17T18:49:12.377Z,9.07
2022-11-17T18:51:41.815Z,9.04
2022-11-17T18:54:13.143Z,9.00
2022-11-17T18:56:42.070Z,8.98
2022-11-17T18:59:12.311Z,8.95
2022-11-17T19:01:43.019Z,8.91
2022-11-17T19:04:14.029Z,8.89
2022-11-17T19:06:43.030Z,8.86
2022-11-17T19:09:13.437Z,8.85
2022-11-17T19:11:42.142Z,8.82
2022-11-17T19:14:10.540Z,8.82
2022-11-17T19:16:44.079Z,8.82
2022-11-17T19:19:15.099Z,8.82
2022-11-17T19:21:43.999Z,8.83
2022-11-17T19:24:15.208Z,8.84
2022-11-17T19:26:43.790Z,8.83
2022-11-17T19:29:17.031Z,8.83
2022-11-17T19:31:46.272Z,8.82
2022-11-17T19:34:14.824Z,8.82
2022-11-17T19:36:44.552Z,8.83
2022-11-17T19:39:15.280Z,8.84
2022-11-17T19:41:45.103Z,8.85
2022-11-17T19:44:13.695Z,8.83
2022-11-17T19:46:43.466Z,8.82
2022-11-17T19:49:13.042Z,8.81
2022-11-17T19:51:41.943Z,8.80
2022-11-17T19:54:13.469Z,8.74
2022-11-17T19:56:43.594Z,8.73
2022-11-17T19:59:16.082Z,8.69
2022-11-17T20:01:46.042Z,8.65
2022-11-17T20:04:14.757Z,8.64
2022-11-17T20:06:43.152Z,8.63
2022-11-17T20:09:13.187Z,8.65
2022-11-17T20:11:43.573Z,8.66
2022-11-17T20:14:12.013Z,8.66
2022-11-17T20:16:40.431Z,8.65
2022-11-17T20:19:09.935Z,8.64
2022-11-17T20:21:38.262Z,8.62
2022-11-17T20:24:07.139Z,8.60
2022-11-17T20:26:36.295Z,8.59
2022-11-17T20:29:06.011Z,8.56
2022-11-17T20:31:36.120Z,8.54
2022-11-17T20:34:06.384Z,8.51
2022-11-17T20:36:35.269Z,8.46
2022-11-17T20:39:06.047Z,8.41
2022-11-17T20:41:34.412Z,8.34
2022-11-17T20:44:03.400Z,8.22
2022-11-17T20:46:33.322Z,8.17
2022-11-17T20:49:01.667Z,8.16
2022-11-17T20:51:30.131Z,8.18
2022-11-17T20:53:58.450Z,8.18
2022-11-17T20:56:26.811Z,8.20
2022-11-17T20:58:55.208Z,8.23
2022-11-17T21:01:24.159Z,8.23
2022-11-17T21:03:54.115Z,8.24
2022-11-17T21:06:23.385Z,8.22
2022-11-17T21:08:52.207Z,8.20
2022-11-17T21:11:39.634Z,8.18
2022-11-17T21:14:10.781Z,8.14
2022-11-17T21:16:41.427Z,8.11
2022-11-17T21:19:11.389Z,8.07
2022-11-17T21:21:39.844Z,8.02
2022-11-17T21:24:09.136Z,7.97
2022-11-17T21:26:37.754Z,7.89
2022-11-17T21:29:07.213Z,7.84
2022-11-17T21:31:36.147Z,7.76
2022-11-17T21:34:07.146Z,7.60
2022-11-17T21:36:37.185Z,7.44
2022-11-17T21:39:05.932Z,7.34
2022-11-17T21:41:36.299Z,7.38
2022-11-17T21:44:05.186Z,7.45
2022-11-17T21:46:36.317Z,7.54
2022-11-17T21:49:05.008Z,7.59
2022-11-17T21:51:37.811Z,7.65
2022-11-17T21:54:09.791Z,7.68
2022-11-17T21:56:38.775Z,7.69
2022-11-17T21:59:11.581Z,7.71
2022-11-17T22:01:40.866Z,7.71
2022-11-17T22:04:09.463Z,7.69
2022-11-17T22:06:39.496Z,7.65
2022-11-17T22:09:09.603Z,7.62
2022-11-17T22:11:39.246Z,7.56
2022-11-17T22:14:10.622Z,7.55
2022-11-17T22:16:40.553Z,7.57
2022-11-17T22:19:10.185Z,7.61
2022-11-17T22:21:39.643Z,7.65
2022-11-17T22:24:11.797Z,7.72
2022-11-17T22:26:42.190Z,7.78
2022-11-17T22:29:13.774Z,7.82
2022-11-17T22:31:42.808Z,7.88
2022-11-17T22:34:11.769Z,7.95
2022-11-17T22:36:40.400Z,8.00
2022-11-17T22:39:10.823Z,8.03
2022-11-17T22:41:39.327Z,8.05
2022-11-17T22:44:07.816Z,8.07
2022-11-17T22:46:36.506Z,8.11
2022-11-17T22:49:04.872Z,8.13
2022-11-17T22:51:50.880Z,8.14
2022-11-17T22:54:20.613Z,8.15
2022-11-17T22:56:49.039Z,8.16
2022-11-17T22:59:17.810Z,8.18
2022-11-17T23:01:46.696Z,8.20
2022-11-17T23:04:16.385Z,8.22
2022-11-17T23:06:44.989Z,8.22
2022-11-17T23:09:14.369Z,8.23
2022-11-17T23:11:45.010Z,8.23
2022-11-17T23:14:15.030Z,8.22
2022-11-17T23:16:44.084Z,8.17
2022-11-17T23:19:14.255Z,8.14
2022-11-17T23:21:42.892Z,8.11
2022-11-17T23:24:12.949Z,8.01
2022-11-17T23:26:42.048Z,7.92
2022-11-17T23:29:11.920Z,7.89
2022-11-17T23:31:40.586Z,7.89
2022-11-17T23:34:10.025Z,7.92
2022-11-17T23:36:38.494Z,7.99
2022-11-17T23:39:07.002Z,8.04
2022-11-17T23:41:35.501Z,8.07
2022-11-17T23:44:03.985Z,8.09
2022-11-17T23:46:33.834Z,8.15
2022-11-17T23:49:02.279Z,8.18
2022-11-17T23:51:31.010Z,8.16
2022-11-17T23:54:00.970Z,8.16
2022-11-17T23:56:35.319Z,8.15
2022-11-17T23:59:04.258Z,8.16
